This demonstration page uses our WeatherBlox Daily Observations layout. Learn more.

41.55636, -103.73856

Hourly Observations for May 16, 2018

Temp ( °F °C ) Dew Point ( °F °C ) Humidity (%) Winds ( mph kmh ) Pressure ( in mb ) Visibility ( mi km ) Precip ( " mm )
12:53 am 00:53 Clear 54 12.2 52 11.1 93 93 ENE 8 13 29.94 1014 10 16.09344 0 0
1:53 am 01:53 Clear 53 11.7 51 10.6 93 93 ENE 8 13 29.91 1013 10 16.09344 0 0
2:53 am 02:53 Clear 52 11.1 50 10 93 93 E 9 15 29.91 1013 10 16.09344 0 0
3:53 am 03:53 Clear 50 10 50 10 100 100 Calm 29.91 1013 10 16.09344 0 0
4:53 am 04:53 Clear 49 9.4 48 8.9 97 97 E 3 6 29.91 1013 10 16.09344 0 0
5:53 am 05:53 Sunny 47 8.3 47 8.3 100 100 E 6 9 29.91 1013 9 14.484096 0 0
6:53 am 06:53 Sunny 54 12.2 52 11.1 93 93 ESE 6 9 29.91 1013 10 16.09344 0 0
7:53 am 07:53 Sunny 56 13.3 53 11.7 90 90 ESE 8 13 29.94 1014 10 16.09344 0 0
8:53 am 08:53 Sunny 62 16.7 55 12.8 78 78 SE 6 9 29.94 1014 10 16.09344 0 0
9:53 am 09:53 Sunny 68 20 54 12.2 61 61 N 3 6 29.91 1013 10 16.09344 0 0
10:53 am 10:53 Sunny 72 22.2 55 12.8 55 55 N 6 9 29.91 1013 10 16.09344 0 0
11:53 am 11:53 Sunny 77 25 56 13.3 48 48 SE 9 15 29.88 1012 10 16.09344 0 0
12:53 pm 12:53 Sunny 78 25.6 51 10.6 39 39 SSE 8 13 29.85 1011 10 16.09344 0 0
1:53 pm 13:53 Sunny 80 26.7 49 9.4 34 34 S 8 13 29.85 1011 10 16.09344 0 0
2:53 pm 14:53 Sunny 79 26.1 50 10 36 36 SE 9 15 29.83 1010 10 16.09344 0 0
3:53 pm 15:53 Sunny 80 26.7 53 11.7 39 39 SE 10 17 29.83 1010 10 16.09344 0 0
4:53 pm 16:53 Sunny 80 26.7 52 11.1 38 38 SSE 13 20 29.83 1010 10 16.09344 0 0
5:53 pm 17:53 Sunny 80 26.7 49 9.4 34 34 SSE 15 24 29.8 1009 10 16.09344 0 0
6:53 pm 18:53 Sunny 77 25 47 8.3 35 35 ESE 9 15 29.8 1009 10 16.09344 0 0
7:53 pm 19:53 Sunny 71 21.7 50 10 47 47 ESE 8 13 29.8 1009 10 16.09344 0 0
8:53 pm 20:53 Clear 65 18.3 48 8.9 54 54 undefined N/A 29.8 1009 10 16.09344 0 0
9:53 pm 21:53 Clear 63 17.2 53 11.7 70 70 E 9 15 29.83 1010 10 16.09344 0 0
10:53 pm 22:53 Clear 62 16.7 53 11.7 73 73 ESE 10 17 29.83 1010 10 16.09344 0 0
11:53 pm 23:53 Clear 60 15.6 53 11.7 78 78 ESE 9 15 29.8 1009 10 16.09344 0 0

Powered by AerisWeather